»·PEaware :: N7969 KABQ-KPHX

N7969 :: KABQ-KPHX

FLIGHT INFORMATION

Flight Status: Arrived
Operator: Privately registered:
United States
More flights under this callsign
Pilot: Diana Atalanta G. (28375)
Aircraft: PIPER PA-31/31P NAVAJO CHIEFTAIN
(PA31)
More flights by this aircraft type
Origin: KABQ Albuquerque Intl Sunport
United States
Destination: KPHX Phoenix Sky Harbor Intl
United States
More flights between these airports :: More routes between these airports
Route: ABQ SJN PXR
File this flight plan on PilotEdge
Remarks:
Altitude:
(Current/Filed)
10,500ft
Speed:
(Current/Filed)
0kts
Departed: 08-Jul-23 11:57 AM
Arrived: 08-Jul-23 02:00 PM
Distance/Time
Traveled:
285nm/2:02
Distance/Time
To Go:
Arrived

Flight Plot

Page will automatically refresh every two minutes.

Flight plan parsing failed; only flown route is shown


Map Options




Map Legend


Flown Route
Filed Route
Departure Airport
Arrival Airport
Navaid (VOR, NDB)
Fix

Horizontal Profiles

Position Reports

Time Latitude Longitude Heading Altitude Ground
Speed
08-Jul-23 11:36 35.037563 -106.620804 17 5316ft 0kts
08-Jul-23 11:37 35.037563 -106.620804 17 5316ft 0kts
08-Jul-23 11:38 35.037563 -106.620804 17 5316ft 0kts
08-Jul-23 11:39 35.037563 -106.620804 17 5316ft 0kts
08-Jul-23 11:40 35.037563 -106.620804 17 5316ft 0kts
08-Jul-23 11:41 35.037563 -106.620804 17 5316ft 0kts
08-Jul-23 11:42 35.037563 -106.620804 17 5316ft 0kts
08-Jul-23 11:43 35.037563 -106.620804 17 5316ft 0kts
08-Jul-23 11:44 35.037563 -106.620804 17 5316ft 0kts
08-Jul-23 11:45 35.037563 -106.620804 17 5316ft 0kts
08-Jul-23 11:46 35.037563 -106.620804 17 5316ft 0kts
08-Jul-23 11:47 35.037563 -106.620804 17 5316ft 0kts
08-Jul-23 11:48 35.039452 -106.620437 25 5316ft 22kts
08-Jul-23 11:49 35.038538 -106.614944 128 5316ft 22kts
08-Jul-23 11:50 35.038950 -106.613858 2 5316ft 27kts
08-Jul-23 11:51 35.042443 -106.610716 92 5316ft 36kts
08-Jul-23 11:52 35.042417 -106.608206 87 5316ft 0kts
08-Jul-23 11:53 35.042417 -106.608206 87 5316ft 0kts
08-Jul-23 11:54 35.042417 -106.608206 87 5316ft 0kts
08-Jul-23 11:55 35.041738 -106.607090 214 5316ft 8kts
08-Jul-23 11:56 35.028410 -106.624045 224 5961ft 113kts
08-Jul-23 11:57 35.000497 -106.653326 217 6527ft 173kts
08-Jul-23 11:58 34.961240 -106.690773 248 7070ft 171kts
08-Jul-23 11:59 34.961275 -106.737019 271 8877ft 144kts
08-Jul-23 12:00 34.967929 -106.789051 275 10459ft 146kts
08-Jul-23 12:01 34.974040 -106.842113 271 11101ft 150kts
08-Jul-23 12:02 34.980800 -106.895709 273 11124ft 162kts
08-Jul-23 12:03 34.986367 -106.950293 271 11268ft 176kts
08-Jul-23 12:04 34.990178 -107.011436 266 11324ft 182kts
08-Jul-23 12:05 34.982245 -107.071957 248 11319ft 181kts
08-Jul-23 12:06 34.965798 -107.129487 250 11202ft 188kts
08-Jul-23 12:07 34.950832 -107.190907 248 11157ft 189kts
08-Jul-23 12:08 34.934700 -107.250468 248 11135ft 185kts
08-Jul-23 12:09 34.918666 -107.309682 248 11115ft 183kts
08-Jul-23 12:10 34.902674 -107.368205 248 11114ft 184kts
08-Jul-23 12:11 34.886826 -107.426843 249 11108ft 183kts
08-Jul-23 12:12 34.870490 -107.485706 247 11130ft 185kts
08-Jul-23 12:13 34.853718 -107.545961 250 11089ft 187kts
08-Jul-23 12:14 34.836415 -107.605774 253 11056ft 188kts
08-Jul-23 12:15 34.822385 -107.662762 252 11051ft 178kts
08-Jul-23 12:16 34.806039 -107.722605 249 10840ft 187kts
08-Jul-23 12:17 34.790175 -107.782024 247 10853ft 181kts
08-Jul-23 12:18 34.772247 -107.840655 250 10871ft 181kts
08-Jul-23 12:19 34.756679 -107.900336 250 10802ft 185kts
08-Jul-23 12:20 34.739475 -107.955700 247 10787ft 181kts
08-Jul-23 12:21 34.723556 -108.009742 249 10949ft 174kts
08-Jul-23 12:22 34.708340 -108.066124 250 10944ft 178kts
08-Jul-23 12:23 34.693296 -108.123275 251 10933ft 180kts
08-Jul-23 12:24 34.677684 -108.182256 250 10923ft 189kts
08-Jul-23 12:25 34.661517 -108.242900 250 10924ft 192kts
08-Jul-23 12:26 34.645130 -108.304255 250 10884ft 194kts
08-Jul-23 12:27 34.628460 -108.365819 250 10785ft 194kts
08-Jul-23 12:28 34.615136 -108.428193 254 10784ft 193kts
08-Jul-23 12:29 34.602536 -108.489599 254 10880ft 187kts
08-Jul-23 12:30 34.590154 -108.541819 250 11010ft 178kts
08-Jul-23 12:31 34.590154 -108.541819 250 11010ft 178kts
08-Jul-23 12:32 34.590130 -108.541913 250 11010ft 178kts
08-Jul-23 12:33 34.590130 -108.541913 250 11010ft 178kts
08-Jul-23 12:34 34.588848 -108.546923 250 11017ft 178kts
08-Jul-23 12:35 34.581171 -108.575611 250 11034ft 178kts
08-Jul-23 12:36 34.581171 -108.575611 250 11034ft 178kts
08-Jul-23 12:37 34.581158 -108.575659 250 11034ft 179kts
08-Jul-23 12:38 34.581158 -108.575659 250 11034ft 179kts
08-Jul-23 12:39 34.573830 -108.603277 250 11042ft 183kts
08-Jul-23 12:40 34.558244 -108.660628 250 11008ft 189kts
08-Jul-23 12:41 34.541528 -108.722174 249 11009ft 192kts
08-Jul-23 12:42 34.524969 -108.782747 250 11035ft 191kts
08-Jul-23 12:43 34.507786 -108.843220 249 11047ft 190kts
08-Jul-23 12:44 34.493870 -108.903290 251 11069ft 191kts
08-Jul-23 12:45 34.479596 -108.961073 252 11073ft 191kts
08-Jul-23 12:46 34.461605 -109.021943 243 11006ft 191kts
08-Jul-23 12:47 34.442366 -109.079556 251 10988ft 190kts
08-Jul-23 12:48 34.424191 -109.137434 249 11064ft 178kts
08-Jul-23 12:49 34.404994 -109.191391 245 11031ft 178kts
08-Jul-23 12:50 34.385634 -109.246026 243 11020ft 174kts
08-Jul-23 12:51 34.367686 -109.300588 249 11080ft 173kts
08-Jul-23 12:52 34.352231 -109.356418 248 11062ft 177kts
08-Jul-23 12:53 34.331803 -109.410633 242 11071ft 173kts
08-Jul-23 12:54 34.313988 -109.465798 251 10987ft 181kts
08-Jul-23 12:55 34.298087 -109.521848 247 11044ft 176kts
08-Jul-23 12:56 34.280413 -109.577638 247 10987ft 178kts
08-Jul-23 12:57 34.261438 -109.631166 243 10998ft 179kts
08-Jul-23 12:58 34.243482 -109.678176 247 10965ft 183kts
08-Jul-23 12:59 34.230937 -109.715846 244 10991ft 181kts
08-Jul-23 13:00 34.209723 -109.769419 244 10922ft 185kts
08-Jul-23 13:01 34.187143 -109.823369 245 10774ft 188kts
08-Jul-23 13:02 34.169258 -109.870738 244 10834ft 181kts
08-Jul-23 13:03 34.150635 -109.922505 246 10898ft 180kts
08-Jul-23 13:04 34.132278 -109.977015 246 10939ft 179kts
08-Jul-23 13:05 34.113971 -110.031175 246 10998ft 182kts
08-Jul-23 13:06 34.094951 -110.086782 246 11031ft 181kts
08-Jul-23 13:07 34.078601 -110.142027 250 11003ft 182kts
08-Jul-23 13:08 34.061197 -110.200551 250 10747ft 193kts
08-Jul-23 13:09 34.043533 -110.258461 250 10825ft 184kts
08-Jul-23 13:10 34.026215 -110.312973 247 10866ft 180kts
08-Jul-23 13:11 34.006699 -110.369562 247 10794ft 189kts
08-Jul-23 13:12 33.986917 -110.426890 247 10845ft 188kts
08-Jul-23 13:13 33.967774 -110.484301 248 10896ft 186kts
08-Jul-23 13:14 33.947007 -110.538993 245 10866ft 180kts
08-Jul-23 13:15 33.926830 -110.591184 245 10871ft 174kts
08-Jul-23 13:16 33.917415 -110.615398 245 10873ft 175kts
08-Jul-23 13:17 33.917415 -110.615398 245 10873ft 175kts
08-Jul-23 13:18 33.917415 -110.615398 245 10873ft 175kts
08-Jul-23 13:19 33.917172 -110.616016 245 10872ft 175kts
08-Jul-23 13:20 33.897609 -110.664653 244 10923ft 170kts
08-Jul-23 13:21 33.883611 -110.704570 246 10845ft 184kts
08-Jul-23 13:22 33.862479 -110.758596 244 10882ft 178kts
08-Jul-23 13:23 33.840279 -110.814664 244 10805ft 177kts
08-Jul-23 13:24 33.819822 -110.869337 244 10885ft 182kts
08-Jul-23 13:25 33.801050 -110.921956 248 10930ft 177kts
08-Jul-23 13:26 33.782994 -110.976912 248 10753ft 181kts
08-Jul-23 13:27 33.765731 -111.032318 248 10860ft 183kts
08-Jul-23 13:28 33.749053 -111.091894 248 10951ft 184kts
08-Jul-23 13:29 33.732662 -111.150616 249 11281ft 171kts
08-Jul-23 13:30 33.717708 -111.205468 248 11399ft 181kts
08-Jul-23 13:31 33.696206 -111.259432 238 11384ft 181kts
08-Jul-23 13:32 33.675371 -111.311540 246 11316ft 184kts
08-Jul-23 13:33 33.654267 -111.362447 245 10960ft 162kts
08-Jul-23 13:34 33.638211 -111.407024 247 9975ft 155kts
08-Jul-23 13:35 33.621756 -111.453139 241 8596ft 162kts
08-Jul-23 13:36 33.603955 -111.497489 240 7527ft 158kts
08-Jul-23 13:37 33.581344 -111.543591 238 6990ft 175kts
08-Jul-23 13:38 33.566275 -111.595743 246 6751ft 183kts
08-Jul-23 13:39 33.546443 -111.644868 239 6390ft 186kts
08-Jul-23 13:40 33.530428 -111.684055 242 5886ft 182kts
08-Jul-23 13:41 33.510867 -111.730400 244 5233ft 188kts
08-Jul-23 13:42 33.492343 -111.775283 245 4831ft 182kts
08-Jul-23 13:43 33.474363 -111.817780 223 4997ft 163kts
08-Jul-23 13:44 33.438377 -111.818361 178 5044ft 171kts
08-Jul-23 13:46 33.401940 -111.815319 178 5071ft 164kts
08-Jul-23 13:47 33.386004 -111.840633 260 4712ft 143kts
08-Jul-23 13:48 33.385019 -111.871493 268 4353ft 141kts
08-Jul-23 13:49 33.385957 -111.902285 270 3809ft 140kts
08-Jul-23 13:50 33.387651 -111.932587 270 3402ft 131kts
08-Jul-23 13:51 33.388671 -111.958162 269 3322ft 121kts
08-Jul-23 13:52 33.390327 -111.984689 271 3269ft 122kts
08-Jul-23 13:53 33.392166 -112.012767 268 3152ft 122kts
08-Jul-23 13:54 33.393742 -112.040485 271 3179ft 104kts
08-Jul-23 13:55 33.395003 -112.064871 269 3167ft 105kts
08-Jul-23 13:56 33.414310 -112.074193 359 2208ft 123kts
08-Jul-23 13:57 33.430962 -112.066639 86 1988ft 106kts
08-Jul-23 13:58 33.429651 -112.044377 99 1482ft 98kts
08-Jul-23 13:59 33.428840 -112.025768 90 1142ft 74kts
08-Jul-23 14:00 33.428249 -112.021866 181 1135ft 0kts
08-Jul-23 14:01 33.426022 -112.021146 182 1135ft 16kts
08-Jul-23 14:02 33.425457 -112.021186 83 1135ft 0kts

Navigation Log

Ident Type
Flight plan parsing failed, navigation log unavailable